createdAt,value
2019-01-20T00:02:28.450Z,96126.20
2019-01-20T00:04:59.800Z,96126.04
2019-01-20T00:07:31.097Z,96122.61
2019-01-20T00:10:02.343Z,96123.73
2019-01-20T00:12:33.328Z,96121.94
2019-01-20T00:15:05.651Z,96123.69
2019-01-20T00:17:36.722Z,96127.45
2019-01-20T00:20:08.427Z,96120.00
2019-01-20T00:22:40.106Z,96125.22
2019-01-20T00:25:12.364Z,96120.84
2019-01-20T00:27:43.626Z,96122.47
2019-01-20T00:30:15.095Z,96121.05
2019-01-20T00:32:46.780Z,96116.67
2019-01-20T00:35:17.844Z,96119.23
2019-01-20T00:37:49.122Z,96117.30
2019-01-20T00:40:20.263Z,96118.77
2019-01-20T00:42:51.548Z,96116.20
2019-01-20T00:45:22.667Z,96119.38
2019-01-20T00:47:53.635Z,96113.57
2019-01-20T00:50:24.661Z,96111.51
2019-01-20T00:52:56.294Z,96106.41
2019-01-20T00:55:27.372Z,96105.77
2019-01-20T00:57:58.999Z,96102.53
2019-01-20T01:00:32.689Z,96104.38
2019-01-20T01:03:03.751Z,96109.14
2019-01-20T01:05:35.494Z,96104.53
2019-01-20T01:08:07.091Z,96107.23
2019-01-20T01:10:38.190Z,96108.84
2019-01-20T01:13:10.255Z,96115.40
2019-01-20T01:15:42.221Z,96118.73
2019-01-20T01:18:13.606Z,96113.57
2019-01-20T01:20:44.843Z,96113.20
2019-01-20T01:23:17.017Z,96118.73
2019-01-20T01:25:48.063Z,96118.86
2019-01-20T01:28:19.470Z,96115.30
2019-01-20T01:30:51.127Z,96120.89
2019-01-20T01:33:22.205Z,96125.69
2019-01-20T01:35:54.032Z,96120.13
2019-01-20T01:38:25.243Z,96123.61
2019-01-20T01:40:56.450Z,96121.12
2019-01-20T01:43:27.783Z,96123.41
2019-01-20T01:45:59.162Z,96123.41
2019-01-20T01:48:30.440Z,96116.89
2019-01-20T01:51:01.537Z,96123.55
2019-01-20T01:53:32.573Z,96117.59
2019-01-20T01:56:04.192Z,96114.08
2019-01-20T01:58:35.265Z,96120.30
2019-01-20T02:01:07.001Z,96115.10
2019-01-20T02:03:37.965Z,96117.09
2019-01-20T02:06:09.085Z,96110.61
2019-01-20T02:08:40.058Z,96115.40
2019-01-20T02:11:11.883Z,96107.83
2019-01-20T02:13:42.937Z,96116.34
2019-01-20T02:16:14.008Z,96118.71
2019-01-20T02:18:46.374Z,96116.05
2019-01-20T02:21:17.419Z,96115.78
2019-01-20T02:23:48.431Z,96120.30
2019-01-20T02:26:19.501Z,96117.39
2019-01-20T02:28:50.728Z,96107.16
2019-01-20T02:31:21.789Z,96105.54
2019-01-20T02:33:52.867Z,96112.52
2019-01-20T02:36:24.755Z,96105.44
2019-01-20T02:38:56.099Z,96102.95
2019-01-20T02:41:27.082Z,96102.48
2019-01-20T02:43:58.302Z,96107.80
2019-01-20T02:46:29.738Z,96103.37
2019-01-20T02:49:00.808Z,96107.80
2019-01-20T02:51:31.975Z,96105.09
2019-01-20T02:54:02.931Z,96105.09
2019-01-20T02:56:33.994Z,96112.63
2019-01-20T02:59:05.276Z,96109.23
2019-01-20T03:01:36.603Z,96112.31
2019-01-20T03:04:07.600Z,96109.88
2019-01-20T03:06:38.893Z,96113.59
2019-01-20T03:09:10.843Z,96111.48
2019-01-20T03:11:41.932Z,96107.82
2019-01-20T03:14:12.911Z,96108.94
2019-01-20T03:16:44.432Z,96101.28
2019-01-20T03:19:15.660Z,96091.75
2019-01-20T03:21:47.022Z,96094.03
2019-01-20T03:24:17.995Z,96095.27
2019-01-20T03:26:49.057Z,96094.53
2019-01-20T03:29:20.031Z,96094.53
2019-01-20T03:31:51.972Z,96093.09
2019-01-20T03:34:23.623Z,96090.80
2019-01-20T03:36:54.681Z,96093.67
2019-01-20T03:39:26.095Z,96086.42
2019-01-20T03:41:57.178Z,96092.56
2019-01-20T03:44:28.400Z,96086.05
2019-01-20T03:46:59.696Z,96089.38
2019-01-20T03:49:30.672Z,96087.09
2019-01-20T03:52:02.460Z,96085.82
2019-01-20T03:54:33.421Z,96088.09
2019-01-20T03:57:04.853Z,96087.79
2019-01-20T03:59:35.967Z,96092.93
2019-01-20T04:02:07.271Z,96088.11
2019-01-20T04:04:38.269Z,96090.89
2019-01-20T04:07:09.418Z,96087.05
2019-01-20T04:09:40.381Z,96082.30
2019-01-20T04:12:11.443Z,96086.16
2019-01-20T04:14:42.462Z,96085.08
2019-01-20T04:17:13.782Z,96086.34
2019-01-20T04:19:44.828Z,96084.55
2019-01-20T04:22:15.806Z,96078.59
2019-01-20T04:24:48.134Z,96079.77
2019-01-20T04:27:19.119Z,96085.95
2019-01-20T04:29:50.096Z,96077.58
2019-01-20T04:32:21.465Z,96082.78
2019-01-20T04:34:52.814Z,96085.30
2019-01-20T04:37:23.815Z,96087.90
2019-01-20T04:39:54.909Z,96083.59
2019-01-20T04:42:29.220Z,96079.04
2019-01-20T04:44:59.218Z,96079.71
2019-01-20T04:47:30.275Z,96079.53
2019-01-20T04:50:01.230Z,96083.72
2019-01-20T04:52:32.283Z,96085.61
2019-01-20T04:55:03.335Z,96084.37
2019-01-20T04:57:35.169Z,96085.80
2019-01-20T05:00:11.013Z,96083.16
2019-01-20T05:02:42.189Z,96082.05
2019-01-20T05:05:13.220Z,96083.09
2019-01-20T05:07:44.397Z,96085.67
2019-01-20T05:10:16.489Z,96082.94
2019-01-20T05:12:48.093Z,96084.44
2019-01-20T05:15:22.145Z,96087.97
2019-01-20T05:17:53.276Z,96091.89
2019-01-20T05:20:24.309Z,96090.14
2019-01-20T05:22:55.704Z,96090.64
2019-01-20T05:25:26.708Z,96090.81
2019-01-20T05:27:57.823Z,96086.90
2019-01-20T05:30:28.955Z,96087.06
2019-01-20T05:33:00.273Z,96084.84
2019-01-20T05:35:31.321Z,96085.47
2019-01-20T05:38:02.310Z,96079.95
2019-01-20T05:40:33.378Z,96080.47
2019-01-20T05:43:04.804Z,96082.27
2019-01-20T05:45:35.736Z,96080.66
2019-01-20T05:48:06.715Z,96092.94
2019-01-20T05:50:37.692Z,96086.13
2019-01-20T05:53:09.014Z,96088.07
2019-01-20T05:55:39.987Z,96089.07
2019-01-20T05:58:10.970Z,96089.36
2019-01-20T06:00:42.157Z,96087.25
2019-01-20T06:03:13.377Z,96086.78
2019-01-20T06:05:44.425Z,96092.00
2019-01-20T06:08:15.680Z,96090.98
2019-01-20T06:10:46.713Z,96093.25
2019-01-20T06:13:18.028Z,96095.22
2019-01-20T06:15:49.310Z,96093.58
2019-01-20T06:18:20.618Z,96097.95
2019-01-20T06:20:52.830Z,96100.70
2019-01-20T06:23:24.077Z,96099.28
2019-01-20T06:25:55.131Z,96098.77
2019-01-20T06:28:26.151Z,96095.12
2019-01-20T06:30:57.128Z,96101.89
2019-01-20T06:33:28.191Z,96104.92
2019-01-20T06:35:59.156Z,96108.83
2019-01-20T06:38:30.190Z,96103.84
2019-01-20T06:41:01.489Z,96103.05
2019-01-20T06:43:32.499Z,96100.12
2019-01-20T06:46:03.967Z,96108.87
2019-01-20T06:48:35.047Z,96105.50
2019-01-20T06:51:06.393Z,96105.02
2019-01-20T06:53:37.394Z,96104.20
2019-01-20T06:56:08.550Z,96106.97
2019-01-20T06:58:39.539Z,96109.41
2019-01-20T07:01:10.533Z,96115.73
2019-01-20T07:03:41.571Z,96119.59
2019-01-20T07:06:13.002Z,96125.40
2019-01-20T07:08:45.693Z,96126.87
2019-01-20T07:11:16.731Z,96130.91
2019-01-20T07:13:47.810Z,96133.45
2019-01-20T07:16:18.820Z,96134.95
2019-01-20T07:18:49.938Z,96139.66
2019-01-20T07:21:20.995Z,96148.00
2019-01-20T07:23:52.792Z,96147.24
2019-01-20T07:26:24.405Z,96150.66
2019-01-20T07:28:55.451Z,96144.84
2019-01-20T07:31:28.025Z,96151.62
2019-01-20T07:33:59.110Z,96155.52
2019-01-20T07:36:30.307Z,96154.23
2019-01-20T07:39:01.361Z,96152.47
2019-01-20T07:41:32.592Z,96165.25
2019-01-20T07:44:03.736Z,96163.65
2019-01-20T07:46:34.884Z,96161.87
2019-01-20T07:49:05.929Z,96164.27
2019-01-20T07:51:37.130Z,96162.98
2019-01-20T07:54:08.106Z,96171.88
2019-01-20T07:56:39.183Z,96172.57
2019-01-20T07:59:10.312Z,96175.61
2019-01-20T08:01:41.635Z,96180.81
2019-01-20T08:04:12.850Z,96176.25
2019-01-20T08:06:43.897Z,96174.49
2019-01-20T08:09:14.987Z,96176.30
2019-01-20T08:11:46.071Z,96175.00
2019-01-20T08:14:17.063Z,96172.41
2019-01-20T08:16:48.103Z,96183.44
2019-01-20T08:19:19.534Z,96187.00
2019-01-20T08:21:51.011Z,96193.32
2019-01-20T08:24:23.170Z,96190.55
2019-01-20T08:26:54.123Z,96196.08
2019-01-20T08:29:25.793Z,96200.44
2019-01-20T08:31:57.218Z,96206.14
2019-01-20T08:34:28.467Z,96208.38
2019-01-20T08:36:59.413Z,96213.70
2019-01-20T08:39:30.402Z,96214.53
2019-01-20T08:42:01.688Z,96215.21
2019-01-20T08:44:38.051Z,96212.27
2019-01-20T08:47:34.865Z,96218.74
2019-01-20T08:50:12.004Z,96214.05
2019-01-20T08:52:43.122Z,96216.16
2019-01-20T08:55:14.256Z,96219.26
2019-01-20T08:57:45.386Z,96212.28
2019-01-20T09:00:19.864Z,96213.41
2019-01-20T09:02:50.940Z,96214.40
2019-01-20T09:05:23.337Z,96216.02
2019-01-20T09:07:54.479Z,96227.83
2019-01-20T09:10:27.705Z,96225.45
2019-01-20T09:13:03.770Z,96226.08
2019-01-20T09:15:34.754Z,96232.09
2019-01-20T09:18:06.661Z,96238.41
2019-01-20T09:20:38.094Z,96241.01
2019-01-20T09:23:09.458Z,96247.48
2019-01-20T09:25:40.914Z,96246.19
2019-01-20T09:28:12.761Z,96247.97
2019-01-20T09:30:44.987Z,96249.58
2019-01-20T09:33:24.338Z,96252.48
2019-01-20T09:35:49.079Z,96246.83
2019-01-20T09:38:20.193Z,96252.52
2019-01-20T09:40:51.181Z,96257.86
2019-01-20T09:43:23.519Z,96253.97
2019-01-20T09:45:55.751Z,96251.70
2019-01-20T09:48:26.706Z,96253.46
2019-01-20T09:50:57.766Z,96263.69
2019-01-20T09:53:29.115Z,96262.55
2019-01-20T09:56:00.846Z,96268.08
2019-01-20T09:58:31.836Z,96270.98
2019-01-20T10:01:03.022Z,96269.52
2019-01-20T10:03:34.506Z,96272.91
2019-01-20T10:06:05.897Z,96269.84
2019-01-20T10:08:37.126Z,96276.17
2019-01-20T10:11:08.281Z,96278.44
2019-01-20T10:13:39.993Z,96272.26
2019-01-20T10:16:11.978Z,96279.90
2019-01-20T10:18:43.119Z,96283.13
2019-01-20T10:21:14.455Z,96283.47
2019-01-20T10:23:45.495Z,96286.07
2019-01-20T10:26:16.548Z,96283.63
2019-01-20T10:28:48.736Z,96286.06
2019-01-20T10:31:19.864Z,96289.28
2019-01-20T10:33:51.190Z,96287.17
2019-01-20T10:36:23.574Z,96288.65
2019-01-20T10:38:54.535Z,96285.55
2019-01-20T10:41:25.641Z,96290.44
2019-01-20T10:44:02.143Z,96289.61
2019-01-20T10:46:30.081Z,96288.48
2019-01-20T10:49:01.440Z,96295.13
2019-01-20T10:51:32.651Z,96281.35
2019-01-20T10:54:03.642Z,96287.84
2019-01-20T10:56:34.719Z,96283.80
2019-01-20T10:59:06.604Z,96280.86
2019-01-20T11:01:37.918Z,96287.53
2019-01-20T11:04:09.224Z,96286.71
2019-01-20T11:06:40.816Z,96290.28
2019-01-20T11:09:12.904Z,96293.83
2019-01-20T11:11:43.870Z,96292.53
2019-01-20T11:14:14.855Z,96296.92
2019-01-20T11:16:46.020Z,96290.59
2019-01-20T11:19:16.996Z,96303.25
2019-01-20T11:21:48.009Z,96294.02
2019-01-20T11:24:19.117Z,96292.06
2019-01-20T11:26:51.612Z,96287.69
2019-01-20T11:29:23.461Z,96294.65
2019-01-20T11:31:55.133Z,96294.33
2019-01-20T11:34:26.091Z,96298.38
2019-01-20T11:36:57.112Z,96294.49
2019-01-20T11:39:28.076Z,96290.91
2019-01-20T11:41:59.179Z,96291.23
2019-01-20T11:44:30.208Z,96289.42
2019-01-20T11:47:01.539Z,96292.85
2019-01-20T11:49:32.602Z,96295.59
2019-01-20T11:52:04.184Z,96298.22
2019-01-20T11:54:35.217Z,96293.50
2019-01-20T11:57:06.376Z,96295.47
2019-01-20T11:59:37.342Z,96294.33
2019-01-20T12:02:08.472Z,96290.13
2019-01-20T12:04:39.450Z,96296.92
2019-01-20T12:07:10.645Z,96293.34
2019-01-20T12:09:41.674Z,96294.02
2019-01-20T12:12:13.181Z,96288.64
2019-01-20T12:14:44.234Z,96281.05
2019-01-20T12:17:15.370Z,96285.55
2019-01-20T12:19:46.606Z,96276.16
2019-01-20T12:22:18.077Z,96275.19
2019-01-20T12:24:49.120Z,96274.87
2019-01-20T12:27:20.449Z,96279.89
2019-01-20T12:29:52.624Z,96287.99
2019-01-20T12:32:23.977Z,96285.55
2019-01-20T12:34:55.310Z,96284.39
2019-01-20T12:37:26.387Z,96288.78
2019-01-20T12:39:59.907Z,96286.02
2019-01-20T12:42:31.309Z,96280.63
2019-01-20T12:45:02.515Z,96293.27
2019-01-20T12:47:33.477Z,96285.04
2019-01-20T12:50:05.935Z,96290.34
2019-01-20T12:52:37.200Z,96296.66
2019-01-20T12:55:08.865Z,96295.66
2019-01-20T12:57:39.909Z,96290.34
2019-01-20T13:00:14.213Z,96289.68
2019-01-20T13:02:45.715Z,96289.16
2019-01-20T13:05:16.862Z,96285.76
2019-01-20T13:07:48.001Z,96284.63
2019-01-20T13:10:19.251Z,96286.58
2019-01-20T13:12:50.474Z,96285.33
2019-01-20T13:15:22.638Z,96284.16
2019-01-20T13:17:53.884Z,96285.47
2019-01-20T13:20:26.066Z,96286.75
2019-01-20T13:22:57.678Z,96285.97
2019-01-20T13:25:30.849Z,96281.53
2019-01-20T13:28:02.171Z,96282.84
2019-01-20T13:30:33.366Z,96284.92
2019-01-20T13:33:04.587Z,96283.63
2019-01-20T13:35:35.646Z,96292.58
2019-01-20T13:38:18.923Z,96292.55
2019-01-20T13:41:19.825Z,96288.16
2019-01-20T13:43:51.491Z,96281.52
2019-01-20T13:46:23.528Z,96290.63
2019-01-20T13:48:55.780Z,96296.91
2019-01-20T13:51:26.756Z,96292.84
2019-01-20T13:53:57.890Z,96296.30
2019-01-20T13:56:28.930Z,96299.05
2019-01-20T13:59:00.029Z,96295.63
2019-01-20T14:01:31.149Z,96298.70
2019-01-20T14:04:03.189Z,96297.75
2019-01-20T14:06:34.294Z,96296.79
2019-01-20T14:09:08.218Z,96298.22
2019-01-20T14:11:39.337Z,96297.58
2019-01-20T14:14:10.584Z,96303.91
2019-01-20T14:16:41.966Z,96297.89
2019-01-20T14:19:13.165Z,96299.88
2019-01-20T14:21:44.356Z,96305.02
2019-01-20T14:24:15.431Z,96308.59
2019-01-20T14:26:46.396Z,96305.34
2019-01-20T14:29:17.454Z,96307.63
2019-01-20T14:31:48.565Z,96311.30
2019-01-20T14:34:19.723Z,96314.11
2019-01-20T14:36:50.990Z,96314.27
2019-01-20T14:39:22.084Z,96315.55
2019-01-20T14:41:53.559Z,96313.54
2019-01-20T14:44:24.627Z,96322.02
2019-01-20T14:46:56.524Z,96322.36
2019-01-20T14:49:27.751Z,96322.19
2019-01-20T14:51:59.023Z,96325.27
2019-01-20T14:54:30.096Z,96334.03
2019-01-20T14:57:01.148Z,96335.55
2019-01-20T14:59:32.220Z,96336.66
2019-01-20T15:02:03.533Z,96339.09
2019-01-20T15:04:34.665Z,96338.94
2019-01-20T15:07:06.024Z,96342.19
2019-01-20T15:09:37.329Z,96348.23
2019-01-20T15:12:08.530Z,96347.73
2019-01-20T15:14:39.939Z,96341.59
2019-01-20T15:17:11.485Z,96341.58
2019-01-20T15:19:42.905Z,96340.28
2019-01-20T15:22:14.115Z,96344.01
2019-01-20T15:24:45.190Z,96349.05
2019-01-20T15:27:16.474Z,96350.69
2019-01-20T15:29:47.550Z,96357.80
2019-01-20T15:32:18.575Z,96354.59
2019-01-20T15:34:49.909Z,96358.96
2019-01-20T15:37:21.041Z,96365.64
2019-01-20T15:39:52.109Z,96364.95
2019-01-20T15:42:23.078Z,96368.38
2019-01-20T15:44:54.222Z,96372.28
2019-01-20T15:47:25.175Z,96372.44
2019-01-20T15:49:57.273Z,96377.34
2019-01-20T15:52:28.238Z,96377.64
2019-01-20T15:54:59.540Z,96382.70
2019-01-20T15:57:30.509Z,96385.44
2019-01-20T16:00:01.909Z,96395.35
2019-01-20T16:02:33.214Z,96396.33
2019-01-20T16:05:05.113Z,96400.70
2019-01-20T16:07:36.456Z,96395.83
2019-01-20T16:10:09.535Z,96397.30
2019-01-20T16:12:40.644Z,96397.50
2019-01-20T16:15:16.177Z,96406.23
2019-01-20T16:17:48.394Z,96406.22
2019-01-20T16:20:20.010Z,96402.33
2019-01-20T16:22:51.440Z,96405.27
2019-01-20T16:25:28.661Z,96406.58
2019-01-20T16:27:59.944Z,96409.97
2019-01-20T16:30:34.379Z,96417.59
2019-01-20T16:33:05.791Z,96420.67
2019-01-20T16:35:37.326Z,96422.80
2019-01-20T16:38:11.005Z,96427.00
2019-01-20T16:40:42.439Z,96422.32
2019-01-20T16:43:13.589Z,96433.84
2019-01-20T16:45:47.076Z,96444.86
2019-01-20T16:48:18.189Z,96442.94
2019-01-20T16:50:49.406Z,96441.80
2019-01-20T16:53:20.429Z,96436.09
2019-01-20T16:55:51.550Z,96446.83
2019-01-20T16:58:22.711Z,96447.14
2019-01-20T17:00:54.599Z,96449.42
2019-01-20T17:03:26.110Z,96451.34
2019-01-20T17:05:57.635Z,96452.97
2019-01-20T17:08:29.260Z,96453.95
2019-01-20T17:11:00.341Z,96451.36
2019-01-20T17:13:32.403Z,96454.43
2019-01-20T17:16:03.558Z,96459.97
2019-01-20T17:18:34.859Z,96456.39
2019-01-20T17:21:06.314Z,96458.83
2019-01-20T17:23:37.266Z,96456.53
2019-01-20T17:26:08.714Z,96463.50
2019-01-20T17:28:39.766Z,96462.55
2019-01-20T17:31:11.234Z,96463.70
2019-01-20T17:33:42.190Z,96465.79
2019-01-20T17:36:13.558Z,96471.49
2019-01-20T17:38:44.702Z,96470.00
2019-01-20T17:41:16.170Z,96471.44
2019-01-20T17:43:47.146Z,96468.38
2019-01-20T17:46:18.225Z,96470.16
2019-01-20T17:48:49.186Z,96476.63
2019-01-20T17:51:20.353Z,96479.44
2019-01-20T17:53:51.587Z,96480.37
2019-01-20T17:56:22.930Z,96482.77
2019-01-20T17:58:55.506Z,96481.02
2019-01-20T18:01:27.813Z,96486.04
2019-01-20T18:03:59.347Z,96479.70
2019-01-20T18:06:30.524Z,96487.82
2019-01-20T18:09:01.546Z,96489.60
2019-01-20T18:11:34.037Z,96489.96
2019-01-20T18:14:05.369Z,96489.15
2019-01-20T18:16:36.421Z,96499.55
2019-01-20T18:19:07.406Z,96501.97
2019-01-20T18:21:38.578Z,96504.27
2019-01-20T18:24:09.812Z,96505.41
2019-01-20T18:26:41.179Z,96507.02
2019-01-20T18:29:12.273Z,96508.17
2019-01-20T18:31:43.302Z,96509.14
2019-01-20T18:34:14.438Z,96512.05
2019-01-20T18:36:45.496Z,96520.83
2019-01-20T18:39:16.782Z,96525.20
2019-01-20T18:41:48.298Z,96522.30
2019-01-20T18:44:19.296Z,96519.36
2019-01-20T18:46:50.638Z,96521.95
2019-01-20T18:49:22.275Z,96529.22
2019-01-20T18:51:53.374Z,96531.50
2019-01-20T18:54:24.428Z,96525.34
2019-01-20T18:56:55.763Z,96517.56
2019-01-20T18:59:26.743Z,96517.41
2019-01-20T19:01:57.819Z,96526.65
2019-01-20T19:04:29.273Z,96524.22
2019-01-20T19:07:00.668Z,96529.09
2019-01-20T19:09:32.143Z,96531.70
2019-01-20T19:12:04.525Z,96530.56
2019-01-20T19:14:37.193Z,96536.75
2019-01-20T19:17:09.109Z,96539.50
2019-01-20T19:19:40.507Z,96538.84
2019-01-20T19:22:12.157Z,96540.95
2019-01-20T19:24:43.820Z,96546.30
2019-01-20T19:27:14.997Z,96548.43
2019-01-20T19:29:46.140Z,96551.03
2019-01-20T19:32:17.561Z,96547.59
2019-01-20T19:34:48.522Z,96551.34
2019-01-20T19:37:19.555Z,96555.53
2019-01-20T19:39:55.394Z,96555.20
2019-01-20T19:42:27.210Z,96555.53
2019-01-20T19:45:00.824Z,96559.28
2019-01-20T19:47:32.101Z,96557.98
2019-01-20T19:50:03.158Z,96558.65
2019-01-20T19:52:34.384Z,96558.81
2019-01-20T19:55:09.942Z,96559.44
2019-01-20T19:57:40.974Z,96562.55
2019-01-20T20:00:16.032Z,96558.81
2019-01-20T20:02:47.853Z,96562.87
2019-01-20T20:05:19.684Z,96563.71
2019-01-20T20:10:47.836Z,96566.93
2019-01-20T20:13:19.324Z,96572.38
2019-01-20T20:15:50.339Z,96575.02
2019-01-20T20:18:21.693Z,96576.67
2019-01-20T20:20:52.930Z,96583.31
2019-01-20T20:23:24.195Z,96582.61
2019-01-20T20:25:57.710Z,96583.13
2019-01-20T20:28:28.971Z,96584.92
2019-01-20T20:30:59.946Z,96586.40
2019-01-20T20:33:32.256Z,96602.27
2019-01-20T20:36:03.518Z,96594.98
2019-01-20T20:38:34.529Z,96595.14
2019-01-20T20:41:05.563Z,96592.72
2019-01-20T20:43:36.907Z,96595.63
2019-01-20T20:46:07.947Z,96600.52
2019-01-20T20:48:39.277Z,96607.17
2019-01-20T20:51:10.438Z,96606.50
2019-01-20T20:53:41.661Z,96600.98
2019-01-20T20:56:13.323Z,96603.42
2019-01-20T20:58:44.669Z,96609.44
2019-01-20T21:01:15.820Z,96607.81
2019-01-20T21:03:47.170Z,96607.81
2019-01-20T21:06:18.185Z,96614.63
2019-01-20T21:08:49.673Z,96616.70
2019-01-20T21:11:20.807Z,96614.45
2019-01-20T21:13:52.432Z,96622.70
2019-01-20T21:16:24.804Z,96625.77
2019-01-20T21:18:57.363Z,96627.73
2019-01-20T21:21:28.584Z,96628.22
2019-01-20T21:24:00.154Z,96634.20
2019-01-20T21:26:31.129Z,96628.20
2019-01-20T21:29:03.235Z,96626.59
2019-01-20T21:31:35.823Z,96637.13
2019-01-20T21:34:06.843Z,96635.37
2019-01-20T21:36:37.801Z,96634.84
2019-01-20T21:39:09.791Z,96640.86
2019-01-20T21:41:40.835Z,96638.42
2019-01-20T21:44:11.872Z,96643.94
2019-01-20T21:46:45.379Z,96638.97
2019-01-20T21:49:16.395Z,96645.67
2019-01-20T21:51:47.372Z,96648.16
2019-01-20T21:54:18.477Z,96647.28
2019-01-20T21:56:49.682Z,96653.73
2019-01-20T21:59:21.027Z,96650.88
2019-01-20T22:01:51.990Z,96657.97
2019-01-20T22:04:22.981Z,96664.66
2019-01-20T22:06:54.050Z,96663.29
2019-01-20T22:09:25.555Z,96671.59
2019-01-20T22:11:57.737Z,96666.47
2019-01-20T22:14:28.792Z,96670.87
2019-01-20T22:16:59.919Z,96669.76
2019-01-20T22:19:31.231Z,96666.66
2019-01-20T22:22:02.463Z,96668.56
2019-01-20T22:24:33.446Z,96669.44
2019-01-20T22:27:04.669Z,96665.52
2019-01-20T22:29:35.674Z,96671.88
2019-01-20T22:32:06.867Z,96671.08
2019-01-20T22:34:37.864Z,96676.66
2019-01-20T22:37:09.077Z,96676.05
2019-01-20T22:39:40.089Z,96673.52
2019-01-20T22:42:11.141Z,96678.26
2019-01-20T22:44:42.145Z,96679.03
2019-01-20T22:47:13.170Z,96679.09
2019-01-20T22:49:44.161Z,96677.77
2019-01-20T22:52:15.564Z,96677.75
2019-01-20T22:54:46.880Z,96679.69
2019-01-20T22:57:18.114Z,96680.35
2019-01-20T22:59:49.110Z,96683.70
2019-01-20T23:02:20.440Z,96689.80
2019-01-20T23:04:51.483Z,96694.16
2019-01-20T23:07:22.858Z,96690.31
2019-01-20T23:09:53.915Z,96692.95
2019-01-20T23:12:25.257Z,96696.75
2019-01-20T23:14:56.298Z,96692.75
2019-01-20T23:17:27.278Z,96696.73
2019-01-20T23:19:58.287Z,96699.25
2019-01-20T23:22:29.507Z,96698.02
2019-01-20T23:25:00.688Z,96700.09
2019-01-20T23:27:31.732Z,96697.23
2019-01-20T23:30:04.475Z,96700.86
2019-01-20T23:32:35.816Z,96693.09
2019-01-20T23:35:07.531Z,96693.83
2019-01-20T23:37:38.933Z,96699.84
2019-01-20T23:40:10.767Z,96689.81
2019-01-20T23:42:41.893Z,96693.58
2019-01-20T23:45:13.724Z,96693.91
2019-01-20T23:47:45.040Z,96697.50
2019-01-20T23:50:16.350Z,96696.97
2019-01-20T23:52:47.947Z,96695.84
2019-01-20T23:55:19.080Z,96693.61
2019-01-20T23:57:50.145Z,96696.73
